Time,TemperatureF,DewpointF,PressureIn,WindDirection,WindDirectionDegrees,WindSpeedMPH,WindSpeedGustMPH,Humidity,HourlyPrecipIn,Conditions,Clouds,dailyrainin,SoftwareType,DateUTC
2013-09-20 00:24:00,50.0,47.0,30.10,West,267,0.0,0.0,91,0.00,,,0.00,,2013-09-20 04:24:00,
2013-09-20 00:54:00,49.0,46.0,30.10,West,267,0.0,0.0,91,0.00,,,0.00,,2013-09-20 04:54:00,
2013-09-20 01:23:00,49.0,47.0,30.10,West,267,0.0,0.0,92,0.00,,,0.00,,2013-09-20 05:23:00,
2013-09-20 01:53:00,48.0,46.0,30.10,West,267,0.0,0.0,92,0.00,,,0.00,,2013-09-20 05:53:00,
2013-09-20 02:22:00,48.0,46.0,30.10,West,267,0.0,0.0,92,0.00,,,0.00,,2013-09-20 06:22:00,
2013-09-20 02:52:00,47.0,45.0,30.10,West,267,0.0,0.0,92,0.00,,,0.00,,2013-09-20 06:52:00,
2013-09-20 03:23:00,47.0,45.0,30.10,West,267,0.0,0.0,92,0.00,,,0.00,,2013-09-20 07:23:00,
2013-09-20 03:53:00,47.0,45.0,30.10,West,267,0.0,0.0,92,0.00,,,0.00,,2013-09-20 07:53:00,
2013-09-20 04:22:00,46.0,44.0,30.10,West,267,0.0,0.0,92,0.00,,,0.00,,2013-09-20 08:22:00,
2013-09-20 04:52:00,46.0,44.0,30.10,West,267,0.0,0.0,92,0.00,,,0.00,,2013-09-20 08:52:00,
2013-09-20 05:22:00,46.0,44.0,30.10,West,267,0.0,0.0,92,0.00,,,0.00,,2013-09-20 09:22:00,
2013-09-20 05:53:00,45.0,43.0,30.10,West,267,0.0,0.0,92,0.00,,,0.00,,2013-09-20 09:53:00,
2013-09-20 06:23:00,45.0,43.0,30.10,West,267,0.0,0.0,92,0.00,,,0.00,,2013-09-20 10:23:00,
2013-09-20 06:53:00,45.0,43.0,30.10,West,267,0.0,0.0,92,0.00,,,0.00,,2013-09-20 10:53:00,
2013-09-20 07:23:00,45.0,43.0,30.10,West,267,0.0,0.0,92,0.00,,,0.00,,2013-09-20 11:23:00,
2013-09-20 07:52:00,45.0,43.0,30.10,West,267,0.0,0.0,93,0.00,,,0.00,,2013-09-20 11:52:00,
2013-09-20 08:22:00,47.0,45.0,30.10,West,267,0.0,0.0,93,0.00,,,0.00,,2013-09-20 12:22:00,
2013-09-20 08:52:00,49.0,47.0,30.10,West,267,0.0,0.0,93,0.00,,,0.00,,2013-09-20 12:52:00,
2013-09-20 09:22:00,54.0,52.0,30.11,West,267,0.0,0.0,93,0.00,,,0.00,,2013-09-20 13:22:00,
2013-09-20 09:53:00,58.0,56.0,30.10,West,267,0.0,0.0,93,0.00,,,0.00,,2013-09-20 13:53:00,
2013-09-20 10:21:00,61.0,59.0,30.10,West,264,0.0,0.0,93,0.00,,,0.00,,2013-09-20 14:21:00,
2013-09-20 10:52:00,68.0,63.0,30.09,SSE,161,0.0,2.0,83,0.00,,,0.00,,2013-09-20 14:52:00,
2013-09-20 11:22:00,73.0,62.0,30.09,South,178,0.0,2.0,68,0.00,,,0.00,,2013-09-20 15:22:00,
2013-09-20 11:54:00,75.0,57.0,30.08,SSW,197,0.0,3.0,54,0.00,,,0.00,,2013-09-20 15:54:00,
2013-09-20 12:23:00,75.0,59.0,30.07,SE,135,0.0,4.0,57,0.00,,,0.00,,2013-09-20 16:23:00,
2013-09-20 12:53:00,76.0,60.0,30.07,SW,225,2.0,6.0,57,0.00,,,0.00,,2013-09-20 16:53:00,
2013-09-20 13:24:00,75.0,58.0,30.06,SSW,211,0.0,5.0,56,0.00,,,0.00,,2013-09-20 17:24:00,
2013-09-20 13:53:00,76.0,60.0,30.05,SE,127,0.0,2.0,58,0.00,,,0.00,,2013-09-20 17:53:00,
2013-09-20 14:22:00,77.0,59.0,30.04,South,170,3.0,7.0,54,0.00,,,0.00,,2013-09-20 18:22:00,
2013-09-20 14:52:00,76.0,58.0,30.03,SW,217,0.0,4.0,54,0.00,,,0.00,,2013-09-20 18:52:00,
2013-09-20 15:22:00,75.0,57.0,30.03,SSW,196,0.0,5.0,54,0.00,,,0.00,,2013-09-20 19:22:00,
2013-09-20 15:53:00,74.0,56.0,30.02,SSE,154,0.0,3.0,54,0.00,,,0.00,,2013-09-20 19:53:00,
2013-09-20 16:22:00,74.0,58.0,30.02,WNW,288,0.0,2.0,57,0.00,,,0.00,,2013-09-20 20:22:00,
2013-09-20 16:52:00,75.0,59.0,30.01,West,279,0.0,3.0,57,0.00,,,0.00,,2013-09-20 20:52:00,
2013-09-20 17:21:00,73.0,58.0,30.01,SW,221,0.0,3.0,60,0.00,,,0.00,,2013-09-20 21:21:00,
2013-09-20 17:55:00,71.0,59.0,30.01,NW,319,0.0,2.0,67,0.00,,,0.00,,2013-09-20 21:55:00,
2013-09-20 18:24:00,69.0,59.0,30.01,NW,319,0.0,3.0,70,0.00,,,0.00,,2013-09-20 22:24:00,
2013-09-20 19:53:00,63.0,57.0,30.00,NW,319,0.0,0.0,81,0.00,,,0.00,,2013-09-20 23:53:00,
2013-09-20 20:21:00,62.0,57.0,30.00,NW,319,0.0,1.0,84,0.00,,,0.00,,2013-09-21 00:21:00,
2013-09-20 20:52:00,61.0,56.0,30.01,NW,319,0.0,0.0,85,0.00,,,0.00,,2013-09-21 00:52:00,
2013-09-20 21:22:00,59.0,55.0,30.01,NW,319,0.0,0.0,87,0.00,,,0.00,,2013-09-21 01:22:00,
2013-09-20 21:52:00,58.0,55.0,30.01,NW,319,0.0,0.0,89,0.00,,,0.00,,2013-09-21 01:52:00,
2013-09-20 22:22:00,58.0,55.0,30.01,NW,319,0.0,0.0,90,0.00,,,0.00,,2013-09-21 02:22:00,
2013-09-20 22:52:00,57.0,54.0,30.01,NW,319,0.0,0.0,91,0.00,,,0.00,,2013-09-21 02:52:00,
2013-09-20 23:22:00,57.0,54.0,30.01,NW,319,0.0,0.0,91,0.00,,,0.00,,2013-09-21 03:22:00,
2013-09-20 23:55:00,56.0,53.0,30.01,NW,319,0.0,1.0,91,0.00,,,0.00,,2013-09-21 03:55:00,